Time;durP1;ratioP1;P1;durP2;ratioP2;P2;SDS_P1;SDS_P2;PMS_P1;PMS_P2;Temp;Humidity;BMP_temperature;BMP_pressure;BME280_temperature;BME280_humidity;BME280_pressure;Samples;Min_cycle;Max_cycle;Signal;HPM_P1;HPM_P2
2023/03/03 00:00:08;;;;;;;11.68;6.07;;;;;;;5.34;73.15;101311.09;4962067;28;20051;-88
2023/03/03 00:02:38;;;;;;;10.50;5.93;;;;;;;5.13;73.67;101286.84;4972434;28;20121;-88
2023/03/03 00:05:14;;;;;;;10.52;5.97;;;;;;;5.28;73.30;101294.59;4966499;28;20734;-90
2023/03/03 00:07:49;;;;;;;10.80;5.75;;;;;;;5.23;73.05;101288.75;4960166;29;20035;-90
2023/03/03 00:10:28;;;;;;;13.02;6.22;;;;;;;5.26;73.00;101280.50;4969463;28;20043;-89
2023/03/03 00:12:57;;;;;;;10.20;5.43;;;;;;;5.31;72.78;101284.66;4964132;28;20039;-89
2023/03/03 00:15:37;;;;;;;10.95;6.05;;;;;;;5.39;73.08;101306.31;4961330;28;20066;-89
2023/03/03 00:18:15;;;;;;;11.60;5.35;;;;;;;5.39;73.20;101301.81;4948299;28;20051;-90
2023/03/03 00:20:56;;;;;;;9.15;5.32;;;;;;;5.26;72.58;101275.19;4963243;28;20182;-90
2023/03/03 00:23:30;;;;;;;11.45;5.22;;;;;;;5.17;72.96;101261.69;4951492;28;20133;-89
2023/03/03 00:26:14;;;;;;;10.50;5.55;;;;;;;5.19;72.71;101260.59;4988698;28;20062;-89
2023/03/03 00:28:54;;;;;;;9.50;5.50;;;;;;;5.38;72.52;101281.44;4960381;28;20035;-90
2023/03/03 00:31:42;;;;;;;9.20;5.40;;;;;;;5.40;72.13;101274.19;4989908;28;20073;-89
2023/03/03 00:34:29;;;;;;;10.48;5.35;;;;;;;5.58;71.77;101293.31;4985080;28;20061;-90
2023/03/03 00:36:57;;;;;;;9.23;5.40;;;;;;;5.50;71.88;101279.69;4957858;28;20071;-89
2023/03/03 00:39:37;;;;;;;9.10;5.18;;;;;;;5.45;71.42;101252.50;4973216;28;20051;-88
2023/03/03 00:42:26;;;;;;;9.75;5.10;;;;;;;5.67;71.58;101281.13;4943896;28;20058;-89
2023/03/03 00:48:24;;;;;;;9.70;5.05;;;;;;;5.44;71.34;101234.81;4959838;29;20050;-89
2023/03/03 00:50:53;;;;;;;11.05;5.28;;;;;;;5.62;71.24;101244.13;4991364;28;20143;-88
2023/03/03 00:53:26;;;;;;;9.35;5.50;;;;;;;5.74;70.79;101249.50;4982807;28;20065;-90
2023/03/03 00:56:09;;;;;;;8.25;5.38;;;;;;;5.76;70.45;101231.53;4968572;28;20039;-90
2023/03/03 00:58:39;;;;;;;9.90;5.75;;;;;;;5.99;70.05;101254.69;4971798;28;20405;-88
2023/03/03 01:01:10;;;;;;;8.20;5.10;;;;;;;5.77;69.51;101235.94;4975956;28;20042;-89
2023/03/03 01:03:36;;;;;;;11.10;5.80;;;;;;;5.93;69.69;101265.81;4947173;28;20070;-89
2023/03/03 01:06:31;;;;;;;9.48;5.63;;;;;;;6.01;69.62;101263.44;4928078;28;20047;-90
2023/03/03 01:08:59;;;;;;;9.10;5.30;;;;;;;5.78;69.61;101229.63;4976715;28;20523;-89
2023/03/03 01:11:28;;;;;;;7.93;5.18;;;;;;;5.73;69.75;101227.28;4944373;28;20066;-90
2023/03/03 01:17:17;;;;;;;9.32;5.00;;;;;;;5.71;68.70;101216.75;4976940;28;20077;-89
2023/03/03 01:19:53;;;;;;;8.30;4.53;;;;;;;5.66;69.31;101226.91;4943317;28;20049;-89
2023/03/03 01:22:55;;;;;;;8.23;4.75;;;;;;;5.69;69.89;101245.38;4948135;29;20118;-88
2023/03/03 01:25:39;;;;;;;10.95;5.38;;;;;;;5.72;69.99;101247.78;4941030;29;20031;-89
2023/03/03 01:31:35;;;;;;;9.75;5.18;;;;;;;5.37;70.12;101214.91;4958064;29;20118;-88
2023/03/03 01:37:25;;;;;;;9.05;5.10;;;;;;;5.35;70.41;101193.69;4969638;28;20089;-90
2023/03/03 01:43:26;;;;;;;9.25;5.20;;;;;;;5.40;70.59;101193.34;4986488;28;20121;-86
2023/03/03 01:45:57;;;;;;;11.50;6.00;;;;;;;5.65;70.67;101233.22;4954375;28;20137;-89
2023/03/03 01:49:01;;;;;;;10.63;5.95;;;;;;;5.39;71.45;101192.50;4989350;28;20042;-90
2023/03/03 01:51:44;;;;;;;12.18;6.43;;;;;;;5.44;71.84;101200.16;4967774;28;20050;-89
2023/03/03 01:54:26;;;;;;;10.90;6.35;;;;;;;5.28;71.56;101174.63;4940846;28;20108;-89
2023/03/03 01:56:58;;;;;;;11.38;6.40;;;;;;;5.42;71.45;101192.25;4957538;28;20496;-89
2023/03/03 01:59:27;;;;;;;11.43;6.03;;;;;;;5.51;71.56;101190.72;4927216;29;20558;-90
2023/03/03 02:01:53;;;;;;;11.80;6.90;;;;;;;5.59;71.22;101204.31;4954623;28;20436;-89
2023/03/03 02:04:21;;;;;;;11.32;6.60;;;;;;;5.62;70.89;101211.22;4937633;29;20142;-89
2023/03/03 02:07:32;;;;;;;10.52;5.88;;;;;;;5.47;71.06;101197.25;4940881;29;20039;-90
2023/03/03 02:13:22;;;;;;;10.95;6.20;;;;;;;5.31;71.29;101181.53;4975334;28;20586;-89
2023/03/03 02:15:50;;;;;;;10.48;6.03;;;;;;;5.58;71.23;101210.63;4941326;28;20058;-90
2023/03/03 02:18:19;;;;;;;11.50;6.32;;;;;;;5.46;71.01;101183.06;4940945;28;20065;-89
2023/03/03 02:21:10;;;;;;;10.85;6.22;;;;;;;5.71;71.25;101215.88;4941243;28;20027;-89
2023/03/03 02:24:09;;;;;;;12.13;6.50;;;;;;;5.84;71.01;101223.81;4948064;29;20039;-89
2023/03/03 02:26:51;;;;;;;9.80;5.97;;;;;;;5.66;70.85;101183.38;4956379;28;20035;-90
2023/03/03 02:29:18;;;;;;;11.13;6.32;;;;;;;5.76;70.41;101189.72;4939880;28;20479;-89
2023/03/03 02:31:46;;;;;;;11.75;6.85;;;;;;;5.70;70.45;101187.50;4954115;28;20043;-89
2023/03/03 02:34:14;;;;;;;12.63;6.38;;;;;;;5.67;70.47;101185.94;4956978;28;20049;-90
2023/03/03 02:36:41;;;;;;;13.30;6.55;;;;;;;5.84;70.07;101203.31;4937050;29;20530;-89
2023/03/03 02:39:25;;;;;;;8.90;6.00;;;;;;;5.94;70.29;101222.19;4955812;28;20038;-88
2023/03/03 02:42:21;;;;;;;10.52;5.75;;;;;;;5.98;70.27;101223.66;4972114;28;20538;-88
2023/03/03 02:44:50;;;;;;;11.68;6.43;;;;;;;5.84;70.30;101213.16;4976113;28;20515;-89
2023/03/03 02:47:26;;;;;;;10.60;6.40;;;;;;;5.76;70.33;101194.19;4963948;28;20055;-87
2023/03/03 02:53:20;;;;;;;14.30;6.38;;;;;;;5.80;70.36;101201.00;4937265;29;20460;-90
2023/03/03 02:59:09;;;;;;;10.30;6.28;;;;;;;5.91;70.28;101220.56;4992035;28;20038;-88
2023/03/03 03:01:36;;;;;;;11.75;6.18;;;;;;;5.74;70.55;101196.16;4977266;28;20035;-91
2023/03/03 03:04:22;;;;;;;11.18;6.10;;;;;;;5.68;70.61;101190.28;4946125;28;20108;-89
2023/03/03 03:06:47;;;;;;;10.63;6.57;;;;;;;5.49;70.83;101172.16;4987735;28;20086;-88
2023/03/03 03:09:21;;;;;;;9.65;6.38;;;;;;;5.60;70.99;101184.69;4942346;28;20043;-88
2023/03/03 03:11:55;;;;;;;12.52;6.60;;;;;;;5.46;70.75;101160.88;4973921;28;20552;-89
2023/03/03 03:14:22;;;;;;;10.70;5.95;;;;;;;5.80;70.63;101203.66;4977332;28;20480;-90
2023/03/03 03:16:55;;;;;;;12.07;6.70;;;;;;;5.63;70.76;101181.78;4945738;28;20054;-88
2023/03/03 03:19:39;;;;;;;10.20;6.32;;;;;;;5.68;70.39;101176.09;4944732;28;20110;-88
2023/03/03 03:22:05;;;;;;;10.57;6.32;;;;;;;5.59;70.47;101161.63;4939971;28;20050;-89
2023/03/03 03:24:46;;;;;;;11.55;6.32;;;;;;;5.80;70.16;101204.50;4935378;28;20047;-89
2023/03/03 03:27:38;;;;;;;11.48;6.18;;;;;;;5.79;70.05;101197.47;4940433;29;20067;-87
2023/03/03 03:30:04;;;;;;;14.63;6.57;;;;;;;5.55;69.91;101178.88;4961243;28;20402;-89
2023/03/03 03:32:30;;;;;;;11.52;6.25;;;;;;;5.46;70.16;101169.72;4959311;28;20061;-89
2023/03/03 03:35:10;;;;;;;9.85;6.30;;;;;;;5.53;70.63;101183.47;4943994;28;20456;-90
2023/03/03 03:37:37;;;;;;;11.57;6.10;;;;;;;5.44;70.34;101178.81;4960088;28;20039;-89
2023/03/03 03:40:04;;;;;;;11.05;6.30;;;;;;;5.40;70.41;101161.34;4943504;28;20078;-89
2023/03/03 03:42:32;;;;;;;11.20;6.70;;;;;;;5.58;70.31;101175.94;4942124;28;20039;-88
2023/03/03 03:45:01;;;;;;;15.20;6.72;;;;;;;5.53;70.30;101170.13;4961049;28;20504;-89
2023/03/03 03:47:30;;;;;;;12.88;6.95;;;;;;;5.66;70.18;101194.88;4928384;28;20464;-88
2023/03/03 03:49:59;;;;;;;11.18;6.70;;;;;;;5.53;70.42;101164.78;4943630;28;20491;-90
2023/03/03 03:52:27;;;;;;;12.32;6.90;;;;;;;5.53;70.21;101151.44;4961742;28;20046;-88
2023/03/03 03:55:00;;;;;;;11.38;6.70;;;;;;;5.62;69.69;101158.75;4925901;28;20184;-90
2023/03/03 03:57:32;;;;;;;10.55;6.57;;;;;;;5.80;69.00;101166.31;4959081;28;20522;-90
2023/03/03 04:00:00;;;;;;;15.20;7.40;;;;;;;5.67;68.60;101142.41;4930766;28;20065;-88
2023/03/03 04:02:50;;;;;;;20.35;8.52;;;;;;;5.92;68.72;101168.91;4966318;28;20039;-89
2023/03/03 04:05:23;;;;;;;27.40;12.23;;;;;;;5.85;68.53;101156.13;4967483;28;20038;-89
2023/03/03 04:07:54;;;;;;;19.85;8.63;;;;;;;5.71;68.26;101133.16;4986050;28;20045;-88
2023/03/03 04:10:26;;;;;;;12.40;6.85;;;;;;;6.00;68.18;101173.66;4948493;28;20039;-88
2023/03/03 04:13:14;;;;;;;11.90;6.47;;;;;;;5.93;67.95;101159.06;4975965;28;20043;-87
2023/03/03 04:15:42;;;;;;;11.20;5.80;;;;;;;5.86;68.19;101152.50;4951993;28;20077;-88
2023/03/03 04:18:12;;;;;;;10.40;6.90;;;;;;;5.86;68.19;101157.84;4909176;29;20047;-88
2023/03/03 04:24:00;;;;;;;13.57;6.90;;;;;;;5.70;68.27;101127.00;4948325;28;20053;-88
2023/03/03 04:26:54;;;;;;;12.27;6.90;;;;;;;6.03;68.23;101170.75;4947537;28;20077;-89
2023/03/03 04:29:20;;;;;;;10.95;6.32;;;;;;;5.81;68.04;101128.84;4981462;28;20097;-89
2023/03/03 04:31:55;;;;;;;10.27;6.68;;;;;;;6.00;67.68;101159.47;4959791;28;20125;-87
2023/03/03 04:37:46;;;;;;;10.68;6.50;;;;;;;5.99;67.99;101155.94;4990793;28;20034;-90
2023/03/03 04:40:13;;;;;;;12.38;6.57;;;;;;;6.03;68.33;101175.25;4945876;28;20060;-87
2023/03/03 04:42:44;;;;;;;13.00;7.10;;;;;;;6.04;68.41;101164.47;4974125;28;20039;-89
2023/03/03 04:45:15;;;;;;;14.52;7.32;;;;;;;6.04;68.24;101163.59;4973685;28;20046;-87
2023/03/03 04:47:42;;;;;;;13.68;7.25;;;;;;;5.83;68.65;101136.72;4977952;28;20082;-88
2023/03/03 04:50:09;;;;;;;14.35;7.68;;;;;;;5.85;68.66;101129.44;4945625;28;20039;-90
2023/03/03 04:52:57;;;;;;;14.07;8.00;;;;;;;6.18;68.39;101168.72;4942745;28;20035;-90
2023/03/03 04:55:22;;;;;;;12.85;7.35;;;;;;;5.92;68.23;101141.34;4961567;28;20043;-89
2023/03/03 04:57:54;;;;;;;14.85;7.25;;;;;;;6.21;67.97;101167.63;4962283;28;20039;-90
2023/03/03 05:00:26;;;;;;;11.52;7.05;;;;;;;6.18;67.97;101165.19;4985606;28;20042;-89
2023/03/03 05:03:12;;;;;;;11.48;6.53;;;;;;;5.92;67.57;101138.66;4955727;28;20035;-89
2023/03/03 05:05:41;;;;;;;;;;;;;;;6.16;67.81;101180.47;4937425;28;20066;-89
2023/03/03 05:08:08;;;;;;;11.90;6.80;;;;;;;5.94;67.94;101147.44;4964297;28;19968;-90
2023/03/03 05:11:18;;;;;;;12.15;6.43;;;;;;;6.13;68.00;101177.09;4932395;28;20109;-90
2023/03/03 05:14:14;;;;;;;17.60;7.40;;;;;;;6.15;67.98;101182.28;4939581;29;20428;-89
2023/03/03 05:16:41;;;;;;;14.82;7.03;;;;;;;6.06;68.05;101157.19;4956560;29;20044;-89
2023/03/03 05:19:07;;;;;;;11.02;6.88;;;;;;;5.84;68.14;101130.44;4973450;28;20058;-91
2023/03/03 05:21:41;;;;;;;14.07;7.57;;;;;;;5.87;67.68;101133.69;4975293;28;20049;-89
2023/03/03 05:24:08;;;;;;;12.88;7.20;;;;;;;5.92;67.64;101147.56;4935224;28;20102;-87
2023/03/03 05:30:07;;;;;;;11.75;7.60;;;;;;;5.96;67.56;101150.84;4967139;28;20198;-90
2023/03/03 05:32:34;;;;;;;13.63;7.57;;;;;;;6.02;67.51;101152.22;4957836;28;20050;-90
2023/03/03 05:35:03;;;;;;;13.73;7.10;;;;;;;6.20;67.13;101166.75;4971885;28;20073;-89
2023/03/03 05:37:51;;;;;;;12.48;7.35;;;;;;;6.28;66.42;101188.38;4937477;29;20051;-89
2023/03/03 05:40:23;;;;;;;13.52;7.63;;;;;;;6.11;66.35;101156.81;4941456;28;20488;-89
2023/03/03 05:42:50;;;;;;;13.68;7.47;;;;;;;6.11;66.47;101147.00;4973887;28;20050;-89
2023/03/03 05:45:19;;;;;;;13.15;7.35;;;;;;;6.25;66.25;101158.38;4940496;28;20058;-90
2023/03/03 05:47:52;;;;;;;12.60;7.03;;;;;;;6.44;65.53;101182.69;4937865;29;20084;-88
2023/03/03 05:50:31;;;;;;;11.60;6.45;;;;;;;6.32;64.59;101146.25;4959577;28;20046;-91
2023/03/03 05:53:40;;;;;;;12.98;7.18;;;;;;;6.54;64.99;101197.00;4943553;28;20046;-89
2023/03/03 05:56:21;;;;;;;11.32;6.70;;;;;;;6.34;64.70;101144.31;4936607;29;20071;-90
2023/03/03 05:59:10;;;;;;;14.00;7.15;;;;;;;6.66;65.00;101189.00;4953524;28;20039;-90
2023/03/03 06:01:40;;;;;;;14.00;7.28;;;;;;;6.61;64.78;101173.34;4942441;28;20055;-89
2023/03/03 06:04:27;;;;;;;11.05;6.72;;;;;;;6.72;64.77;101185.84;4956346;28;20061;-89
2023/03/03 06:06:53;;;;;;;13.13;7.38;;;;;;;6.33;65.39;101156.81;4977324;28;20158;-91
2023/03/03 06:09:20;;;;;;;13.30;7.00;;;;;;;6.47;65.15;101158.41;4969727;28;20042;-89
2023/03/03 06:11:56;;;;;;;12.73;6.78;;;;;;;6.50;64.74;101150.13;4957596;28;20433;-90
2023/03/03 06:14:28;;;;;;;11.35;7.07;;;;;;;6.47;64.52;101137.03;4976745;28;20050;-90
2023/03/03 06:16:58;;;;;;;12.02;7.22;;;;;;;6.77;64.70;101180.97;4960756;28;20102;-90
2023/03/03 06:19:54;;;;;;;16.23;6.95;;;;;;;6.75;64.94;101180.25;4969088;28;20043;-89
2023/03/03 06:22:20;;;;;;;;;;;;;;;6.76;64.05;101179.25;4959553;28;20506;-90
2023/03/03 06:25:05;;;;;;;12.10;7.18;;;;;;;6.76;64.05;101171.25;4951853;29;19918;-89
2023/03/03 06:27:58;;;;;;;11.38;7.03;;;;;;;6.91;63.81;101185.22;4955074;29;20066;-89
2023/03/03 06:30:35;;;;;;;12.45;6.95;;;;;;;6.95;63.78;101184.84;4956842;29;20047;-89
2023/03/03 06:33:08;;;;;;;13.30;7.15;;;;;;;6.91;63.80;101190.56;4939985;29;20459;-90
2023/03/03 06:35:43;;;;;;;15.18;7.75;;;;;;;6.83;63.07;101163.59;4965812;28;20106;-90
2023/03/03 06:38:10;;;;;;;14.73;7.72;;;;;;;7.01;62.74;101161.25;4956473;28;20042;-89
2023/03/03 06:40:37;;;;;;;12.30;7.82;;;;;;;7.12;62.55;101174.59;4974037;28;20113;-91
2023/03/03 06:46:37;;;;;;;13.05;7.57;;;;;;;7.07;62.05;101171.41;4955633;29;20559;-90
2023/03/03 07:03:04;;;;;;;15.80;8.20;;;;;;;7.11;61.32;101163.00;4982499;28;20093;-90
2023/03/03 07:05:43;;;;;;;14.48;7.95;;;;;;;7.27;61.50;101188.50;4970099;28;20051;-90
2023/03/03 07:08:24;;;;;;;13.00;8.35;;;;;;;6.94;61.55;101145.69;4976056;28;20109;-90
2023/03/03 07:10:55;;;;;;;12.00;7.50;;;;;;;7.02;61.13;101158.44;4917741;28;20051;-88
2023/03/03 07:13:28;;;;;;;12.20;7.43;;;;;;;7.21;61.11;101179.19;4975316;28;20057;-89
2023/03/03 07:16:12;;;;;;;14.15;8.25;;;;;;;7.15;61.46;101166.31;4955018;28;20144;-92
2023/03/03 07:18:49;;;;;;;15.75;8.05;;;;;;;7.26;61.57;101186.78;4932201;29;20058;-87
2023/03/03 07:21:27;;;;;;;13.23;7.60;;;;;;;7.22;61.27;101185.38;4906763;29;20035;-90
2023/03/03 07:24:00;;;;;;;11.80;7.30;;;;;;;7.18;61.68;101174.06;4949260;28;20142;-89
2023/03/03 07:26:31;;;;;;;13.80;7.93;;;;;;;7.35;61.74;101178.00;4956689;28;20035;-89
2023/03/03 07:29:32;;;;;;;17.67;10.07;;;;;;;7.19;61.48;101139.19;4956826;28;20287;-91
2023/03/03 07:35:38;;;;;;;11.25;6.13;;;;;;;7.54;60.60;101153.28;4962107;28;20037;-88
2023/03/03 07:39:12;;;;;;;15.40;7.47;;;;;;;7.35;60.66;101133.41;4940350;28;20126;-88
2023/03/03 07:41:42;;;;;;;13.35;7.35;;;;;;;7.61;60.39;101133.88;4972158;28;20367;-89
2023/03/03 07:44:23;;;;;;;11.73;7.38;;;;;;;7.89;59.94;101131.53;4938760;28;20117;-90
2023/03/03 07:46:50;;;;;;;12.07;7.70;;;;;;;7.78;59.42;101121.72;4921935;29;20035;-91
2023/03/03 07:49:38;;;;;;;14.68;7.57;;;;;;;8.04;59.36;101156.13;4922842;29;20070;-88
2023/03/03 07:52:26;;;;;;;13.48;6.97;;;;;;;8.17;58.16;101154.09;4972413;28;20043;-90
2023/03/03 07:58:42;;;;;;;12.40;7.35;;;;;;;8.01;58.26;101122.44;4977363;28;20522;-89
2023/03/03 08:01:40;;;;;;;16.27;7.95;;;;;;;8.45;57.94;101144.53;4941227;29;20345;-90
2023/03/03 08:04:34;;;;;;;18.88;7.90;;;;;;;8.57;57.70;101147.94;4941662;28;20031;-88
2023/03/03 08:07:23;;;;;;;15.95;8.23;;;;;;;8.21;57.53;101106.44;4973890;28;20467;-89
2023/03/03 08:10:26;;;;;;;12.75;6.88;;;;;;;8.11;56.91;101114.44;4943110;28;20511;-90
2023/03/03 08:13:26;;;;;;;11.98;7.60;;;;;;;8.08;56.54;101119.19;4976510;28;20043;-92
2023/03/03 08:16:02;;;;;;;12.82;7.47;;;;;;;8.53;56.41;101129.59;4979088;28;20039;-90
2023/03/03 08:18:47;;;;;;;15.90;6.95;;;;;;;8.78;55.65;101112.13;4938055;28;20051;-92
2023/03/03 08:21:19;;;;;;;12.07;7.43;;;;;;;9.01;55.51;101118.97;4952320;28;20146;-91
2023/03/03 08:24:02;;;;;;;11.65;7.38;;;;;;;8.97;55.22;101101.47;4947312;28;20042;-89
2023/03/03 08:26:57;;;;;;;13.20;7.40;;;;;;;9.54;53.67;101147.22;4962838;28;20038;-90
2023/03/03 08:32:44;;;;;;;14.07;8.05;;;;;;;10.08;52.62;101102.72;4982703;28;19932;-90
2023/03/03 08:35:31;;;;;;;15.35;8.10;;;;;;;10.63;51.41;101101.94;4964616;28;20498;-89
2023/03/03 08:38:09;;;;;;;13.27;8.23;;;;;;;11.35;49.71;101123.50;4985358;28;20212;-90
2023/03/03 08:40:49;;;;;;;14.05;8.10;;;;;;;11.50;48.72;101113.03;4988367;28;20085;-90
2023/03/03 08:43:20;;;;;;;18.42;10.75;;;;;;;12.12;47.84;101115.69;4964706;29;20099;-90
2023/03/03 08:45:53;;;;;;;13.85;7.35;;;;;;;12.44;46.51;101113.16;4922749;29;20389;-89
2023/03/03 08:48:36;;;;;;;11.57;7.15;;;;;;;12.85;46.07;101116.00;4943050;29;20062;-90
2023/03/03 08:51:29;;;;;;;10.95;7.07;;;;;;;13.05;45.19;101134.59;4945445;29;20070;-89
2023/03/03 08:53:57;;;;;;;11.27;6.88;;;;;;;13.01;45.83;101127.81;4954172;29;20043;-91
2023/03/03 08:56:31;;;;;;;9.48;6.63;;;;;;;12.65;46.55;101122.66;4944605;29;20043;-91
2023/03/03 08:58:57;;;;;;;11.05;6.85;;;;;;;12.18;46.73;101126.66;4944272;29;20090;-90
2023/03/03 09:01:54;;;;;;;10.43;6.93;;;;;;;12.24;47.42;101149.44;4935045;29;20047;-90
2023/03/03 09:04:43;;;;;;;12.18;7.20;;;;;;;12.59;46.00;101128.69;4940396;29;20032;-90
2023/03/03 09:07:15;;;;;;;11.63;7.15;;;;;;;12.24;46.60;101117.94;4951311;29;20043;-89
2023/03/03 09:36:36;;;;;;;10.55;6.63;;;;;;;12.00;46.32;101085.47;4996699;28;20069;-87
2023/03/03 09:39:26;;;;;;;9.20;6.05;;;;;;;11.82;47.27;101090.88;4975643;28;20043;-89
2023/03/03 09:42:09;;;;;;;8.85;5.97;;;;;;;11.35;47.25;101083.13;4966777;28;20038;-90
2023/03/03 09:48:21;;;;;;;8.00;5.50;;;;;;;12.09;45.12;101089.06;4969278;28;20499;-91
2023/03/03 09:54:20;;;;;;;10.15;6.30;;;;;;;12.21;46.86;101102.06;4977592;28;20151;-90
2023/03/03 09:57:08;;;;;;;9.00;5.85;;;;;;;12.72;44.73;101064.34;4974155;28;20027;-90
2023/03/03 10:00:04;;;;;;;9.13;6.10;;;;;;;13.02;45.00;101086.34;4944588;28;20043;-90
2023/03/03 10:06:16;;;;;;;12.10;6.38;;;;;;;13.27;44.30;101049.38;4973133;28;20102;-89
2023/03/03 10:09:21;;;;;;;9.95;5.68;;;;;;;13.03;44.74;101071.81;4967169;28;20031;-91
2023/03/03 10:12:13;;;;;;;12.73;6.50;;;;;;;12.72;46.16;101067.03;4966335;28;20035;-88
2023/03/03 10:15:01;;;;;;;10.98;5.68;;;;;;;13.26;44.83;101062.03;4977975;28;20590;-89
2023/03/03 10:18:22;;;;;;;;;;;;;;;;;;;;;
2023/03/03 10:21:42;;;;;;;;;;;;;;;;;;;;;
2023/03/03 10:24:47;;;;;;;8.25;5.10;;;;;;;13.61;43.70;101049.22;4957738;28;20247;-91
2023/03/03 10:27:50;;;;;;;8.23;5.50;;;;;;;13.27;44.68;101047.59;4977190;28;20042;-91
2023/03/03 10:34:19;;;;;;;11.80;5.70;;;;;;;13.62;44.56;101050.06;4963916;28;20045;-91
2023/03/03 10:37:20;;;;;;;8.55;5.95;;;;;;;13.50;44.45;101041.47;4975760;28;20055;-91
2023/03/03 10:40:19;;;;;;;12.45;5.57;;;;;;;12.59;45.88;101037.00;4956992;28;20042;-91
2023/03/03 10:43:00;;;;;;;8.55;6.07;;;;;;;12.50;46.88;101032.59;4941832;28;20205;-90
2023/03/03 10:45:44;;;;;;;8.32;5.43;;;;;;;12.99;45.91;101040.78;4958021;28;20170;-89
2023/03/03 10:48:40;;;;;;;10.90;5.60;;;;;;;12.66;46.79;101038.84;4961341;28;20043;-91
2023/03/03 10:51:53;;;;;;;9.10;5.55;;;;;;;12.36;46.83;101018.75;4955681;28;20070;-91
2023/03/03 10:58:40;;;;;;;7.95;5.28;;;;;;;12.39;47.55;101031.91;4954240;29;20077;-91
2023/03/03 11:01:48;;;;;;;9.05;5.53;;;;;;;12.72;46.80;101023.03;4954616;28;20039;-89
2023/03/03 11:04:39;;;;;;;7.28;5.22;;;;;;;13.76;44.98;101018.78;4956438;28;20042;-91
2023/03/03 11:07:54;;;;;;;8.90;5.30;;;;;;;14.30;42.86;101010.81;4955424;28;20418;-91
2023/03/03 11:10:51;;;;;;;9.45;5.38;;;;;;;14.68;42.24;100998.28;4949562;28;20070;-91
2023/03/03 11:13:56;;;;;;;8.68;5.70;;;;;;;14.64;42.27;100988.00;4973699;28;20499;-89
2023/03/03 11:16:28;;;;;;;9.07;5.20;;;;;;;14.96;40.36;100985.06;4944368;28;20058;-89
2023/03/03 11:19:30;;;;;;;7.90;5.78;;;;;;;14.59;42.02;100976.88;4955036;28;20114;-91
2023/03/03 11:21:59;;;;;;;8.35;5.50;;;;;;;15.39;40.74;100968.25;4954494;29;20070;-91
2023/03/03 11:24:52;;;;;;;9.20;5.68;;;;;;;15.22;40.25;100953.16;4953079;28;20034;-90
2023/03/03 11:27:32;;;;;;;11.50;5.85;;;;;;;15.36;40.27;100946.94;4976356;28;20046;-90
2023/03/03 11:30:21;;;;;;;9.82;5.88;;;;;;;15.21;40.34;100946.91;4960463;28;20058;-89
2023/03/03 11:33:15;;;;;;;8.05;5.88;;;;;;;15.90;39.35;100927.69;4945862;28;20094;-88
2023/03/03 11:36:17;;;;;;;8.10;5.47;;;;;;;15.65;38.92;100921.72;4942479;29;20066;-91
2023/03/03 11:38:53;;;;;;;11.38;5.85;;;;;;;14.64;40.58;100928.47;4960183;29;20059;-92
2023/03/03 11:42:19;;;;;;;7.50;5.45;;;;;;;15.57;39.74;100962.47;4953496;28;20031;-91
2023/03/03 11:45:04;;;;;;;8.90;6.05;;;;;;;17.49;36.92;100950.13;4960405;29;20125;-91
2023/03/03 11:48:02;;;;;;;10.52;6.05;;;;;;;18.63;34.18;100942.41;4945427;28;20058;-90
2023/03/03 11:50:51;;;;;;;10.20;5.78;;;;;;;18.43;33.78;100924.19;4947188;28;20134;-89
2023/03/03 11:53:23;;;;;;;11.73;6.13;;;;;;;19.02;33.33;100930.75;4932300;28;20078;-91
2023/03/03 11:56:22;;;;;;;7.50;5.20;;;;;;;19.12;32.43;100911.25;4958651;28;20034;-92
2023/03/03 11:58:57;;;;;;;8.02;5.30;;;;;;;17.90;34.16;100894.91;4970105;28;20101;-91
2023/03/03 12:01:42;;;;;;;;;;;;;;;18.06;34.44;100933.69;4981254;28;20058;-90
2023/03/03 12:04:22;;;;;;;6.55;5.10;;;;;;;17.67;34.44;100922.38;4964285;28;19974;-91
2023/03/03 12:07:19;;;;;;;7.97;5.55;;;;;;;16.50;37.34;100939.22;4968965;28;20066;-89
2023/03/03 12:09:53;;;;;;;8.60;5.20;;;;;;;15.85;38.78;100948.25;4953714;28;20495;-89
2023/03/03 12:12:34;;;;;;;7.38;5.28;;;;;;;15.25;39.61;100912.19;4985164;28;20239;-91
2023/03/03 12:15:19;;;;;;;7.40;5.07;;;;;;;15.34;40.25;100941.69;4968236;28;20039;-90
2023/03/03 12:18:35;;;;;;;10.38;5.07;;;;;;;14.17;42.67;100924.88;4958834;28;20534;-90
2023/03/03 12:21:38;;;;;;;8.93;5.93;;;;;;;13.84;43.83;100933.16;4958527;28;20035;-88
2023/03/03 12:28:00;;;;;;;8.60;5.50;;;;;;;13.10;45.54;100935.16;4959322;29;20134;-90
2023/03/03 12:30:56;;;;;;;8.55;5.10;;;;;;;13.45;44.97;100935.81;4905533;29;20249;-90
2023/03/03 12:34:23;;;;;;;;;;;;;;;;;;;;;
2023/03/03 12:37:28;;;;;;;10.98;6.28;;;;;;;12.54;47.59;100939.56;5003598;28;20035;-89
2023/03/03 12:40:10;;;;;;;11.13;6.03;;;;;;;11.25;51.26;100942.41;4981522;28;20062;-91
2023/03/03 12:43:14;;;;;;;12.27;6.63;;;;;;;11.37;51.43;100943.84;4981054;28;20042;-91
2023/03/03 12:45:52;;;;;;;10.13;6.70;;;;;;;11.22;51.56;100913.13;4966879;28;20141;-91
2023/03/03 12:49:00;;;;;;;13.35;6.70;;;;;;;11.50;50.56;100917.31;4970302;28;20046;-92
2023/03/03 12:52:07;;;;;;;13.88;6.47;;;;;;;11.38;50.84;100913.22;4966213;28;20129;-91
2023/03/03 12:54:39;;;;;;;9.32;5.97;;;;;;;10.99;51.43;100916.34;4959363;28;20149;-90
2023/03/03 13:00:36;;;;;;;11.50;5.82;;;;;;;10.41;53.17;100906.13;4989152;28;20045;-90
2023/03/03 13:03:32;;;;;;;9.30;5.30;;;;;;;10.11;54.06;100940.38;4960639;28;20049;-91
2023/03/03 13:09:42;;;;;;;8.50;6.20;;;;;;;10.77;54.24;100934.69;4975936;28;20039;-91
2023/03/03 13:12:48;;;;;;;11.00;6.35;;;;;;;10.40;54.22;100896.38;4963866;28;20052;-89
2023/03/03 13:15:50;;;;;;;13.15;5.97;;;;;;;10.28;54.90;100931.53;4944199;28;20050;-88
2023/03/03 13:21:41;;;;;;;11.45;6.00;;;;;;;9.87;55.91;100897.97;4956624;28;20054;-89
2023/03/03 13:24:29;;;;;;;9.90;6.03;;;;;;;9.92;56.33;100928.75;4939737;29;20054;-91
2023/03/03 13:26:58;;;;;;;11.15;6.90;;;;;;;9.50;57.87;100910.47;4941573;28;20185;-92
2023/03/03 13:29:37;;;;;;;15.35;8.52;;;;;;;9.90;57.04;100901.22;4942888;28;20034;-90
2023/03/03 13:32:11;;;;;;;10.90;6.93;;;;;;;9.40;58.29;100898.06;4938307;29;20035;-89
2023/03/03 13:35:15;;;;;;;10.63;6.63;;;;;;;9.59;58.57;100929.34;4937720;29;20043;-90
2023/03/03 13:38:30;;;;;;;10.68;6.43;;;;;;;9.44;59.58;100927.16;4940708;29;20197;-90
2023/03/03 13:41:15;;;;;;;10.15;6.50;;;;;;;9.06;60.19;100886.06;4970267;28;20419;-91
2023/03/03 13:44:03;;;;;;;11.30;6.15;;;;;;;9.01;60.47;100903.56;4979298;28;20043;-89
2023/03/03 13:47:05;;;;;;;9.80;6.63;;;;;;;8.91;61.23;100929.56;4935277;28;20073;-90
2023/03/03 13:49:42;;;;;;;12.27;6.40;;;;;;;8.88;60.93;100931.53;4948700;28;20054;-89
2023/03/03 13:52:26;;;;;;;11.95;6.97;;;;;;;8.28;62.37;100884.41;4945277;28;20121;-90
2023/03/03 13:55:04;;;;;;;10.90;6.80;;;;;;;8.40;62.45;100899.38;4943681;28;20039;-89
2023/03/03 13:57:50;;;;;;;13.63;8.05;;;;;;;8.49;63.06;100921.81;4961958;28;20045;-90
2023/03/03 14:00:52;;;;;;;12.38;6.82;;;;;;;8.30;63.03;100885.97;4957810;28;20042;-89
2023/03/03 14:03:39;;;;;;;13.60;7.90;;;;;;;8.61;63.25;100913.47;4957793;29;20421;-89
2023/03/03 14:06:45;;;;;;;14.10;8.20;;;;;;;8.33;63.24;100879.47;4940825;29;20070;-90
2023/03/03 14:09:48;;;;;;;11.98;7.07;;;;;;;8.44;63.13;100922.25;4977699;28;20043;-90
2023/03/03 14:12:26;;;;;;;22.45;12.95;;;;;;;8.49;63.14;100895.88;4986939;28;20027;-89
2023/03/03 14:15:16;;;;;;;12.50;7.40;;;;;;;8.22;63.83;100918.81;4931884;28;20057;-89
2023/03/03 14:21:16;;;;;;;23.17;11.10;;;;;;;8.09;65.33;100912.88;4975100;28;20517;-90
2023/03/03 14:24:10;;;;;;;17.25;9.00;;;;;;;7.85;66.53;100909.75;4949632;29;20047;-90
2023/03/03 14:26:51;;;;;;;17.90;9.07;;;;;;;7.95;66.24;100903.41;4967869;28;20486;-88
2023/03/03 14:29:28;;;;;;;16.35;9.48;;;;;;;7.98;66.51;100919.22;4942910;28;20523;-90
2023/03/03 14:32:19;;;;;;;15.52;9.00;;;;;;;7.90;66.41;100916.34;4941216;29;20081;-90
2023/03/03 14:35:01;;;;;;;12.80;7.78;;;;;;;7.89;66.49;100911.13;4958772;28;20066;-90
2023/03/03 14:38:05;;;;;;;18.13;9.10;;;;;;;7.71;67.15;100892.22;4942695;28;20047;-90
2023/03/03 14:40:36;;;;;;;15.48;9.30;;;;;;;7.39;67.95;100891.41;4901607;29;20083;-90
2023/03/03 14:43:32;;;;;;;17.70;9.48;;;;;;;7.60;68.17;100912.75;4895537;29;20062;-90